Time;durP1;ratioP1;P1;durP2;ratioP2;P2;SDS_P1;SDS_P2;PMS_P1;PMS_P2;Temp;Humidity;BMP_temperature;BMP_pressure;BME280_temperature;BME280_humidity;BME280_pressure;Samples;Min_cycle;Max_cycle;Signal;HPM_P1;HPM_P2
2024/01/10 00:01:45;;;;;;;;;;;;;;;;;;4997861;28;19925;-71
2024/01/10 00:04:12;;;;;;;;;;;;;;;;;;4995460;28;19930;-71
2024/01/10 00:06:39;;;;;;;;;;;;;;;;;;4998106;28;19983;-72
2024/01/10 00:09:06;;;;;;;;;;;;;;;;;;5014015;28;19988;-71
2024/01/10 00:11:33;;;;;;;;;;;;;;;;;;5010127;28;20020;-71
2024/01/10 00:14:02;;;;;;;;;;;;;;;;;;4995490;28;19969;-71
2024/01/10 00:16:29;;;;;;;;;;;;;;;;;;4995933;28;19925;-71
2024/01/10 00:18:56;;;;;;;;;;;;;;;;;;4997131;28;20016;-71
2024/01/10 00:21:23;;;;;;;;;;;;;;;;;;5008581;28;19926;-71
2024/01/10 00:23:50;;;;;;;;;;;;;;;;;;5002861;28;19996;-71
2024/01/10 00:26:17;;;;;;;;;;;;;;;;;;4995351;28;20352;-71
2024/01/10 00:28:45;;;;;;;;;;;;;;;;;;4995036;28;20340;-71
2024/01/10 00:31:12;;;;;;;;;;;;;;;;;;5007440;28;19972;-71
2024/01/10 00:33:40;;;;;;;;;;;;;;;;;;4994544;28;19932;-71
2024/01/10 00:36:07;;;;;;;;;;;;;;;;;;4995216;28;19925;-71
2024/01/10 00:38:34;;;;;;;;;;;;;;;;;;4999117;28;20383;-71
2024/01/10 00:41:01;;;;;;;;;;;;;;;;;;5008271;28;19937;-71
2024/01/10 00:43:28;;;;;;;;;;;;;;;;;;4995049;28;19926;-71
2024/01/10 00:45:55;;;;;;;;;;;;;;;;;;5010341;28;19926;-71
2024/01/10 00:48:22;;;;;;;;;;;;;;;;;;5002548;28;19933;-71
2024/01/10 00:50:49;;;;;;;;;;;;;;;;;;4995957;28;19925;-72
2024/01/10 00:53:16;;;;;;;;;;;;;;;;;;4996851;28;19926;-71
2024/01/10 00:55:43;;;;;;;;;;;;;;;;;;5007799;28;20010;-71
2024/01/10 00:58:10;;;;;;;;;;;;;;;;;;4996241;28;19926;-72
2024/01/10 01:00:37;;;;;;;;;;;;;;;;;;5001856;28;19930;-72
2024/01/10 01:03:04;;;;;;;;;;;;;;;;;;5013948;28;20282;-71
2024/01/10 01:05:31;;;;;;;;;;;;;;;;;;5012276;28;19925;-71
2024/01/10 01:07:58;;;;;;;;;;;;;;;;;;5003591;28;19988;-71
2024/01/10 01:10:25;;;;;;;;;;;;;;;;;;4993943;28;19925;-71
2024/01/10 01:12:53;;;;;;;;;;;;;;;;;;4994403;28;19996;-71
2024/01/10 01:15:20;;;;;;;;;;;;;;;;;;4994388;28;19981;-71
2024/01/10 01:17:47;;;;;;;;;;;;;;;;;;4994831;28;19926;-72
2024/01/10 01:20:14;;;;;;;;;;;;;;;;;;5013740;28;19930;-71
2024/01/10 01:22:41;;;;;;;;;;;;;;;;;;5005174;28;20352;-72
2024/01/10 01:25:08;;;;;;;;;;;;;;;;;;5008114;28;19926;-72
2024/01/10 01:27:35;;;;;;;;;;;;;;;;;;4993690;28;20300;-72
2024/01/10 01:30:03;;;;;;;;;;;;;;;;;;4993474;28;19969;-72
2024/01/10 01:32:30;;;;;;;;;;;;;;;;;;4993549;28;20012;-72
2024/01/10 01:34:57;;;;;;;;;;;;;;;;;;4999355;28;19980;-72
2024/01/10 01:37:24;;;;;;;;;;;;;;;;;;5012476;28;19932;-72
2024/01/10 01:39:51;;;;;;;;;;;;;;;;;;4999805;28;19925;-72
2024/01/10 01:42:18;;;;;;;;;;;;;;;;;;4993479;28;19926;-72
2024/01/10 01:44:45;;;;;;;;;;;;;;;;;;4994872;28;19948;-70
2024/01/10 01:47:12;;;;;;;;;;;;;;;;;;5013147;28;20377;-71
2024/01/10 01:49:42;;;;;;;;;;;;;;;;;;4996412;28;20384;-70
2024/01/10 01:52:09;;;;;;;;;;;;;;;;;;5006720;28;19925;-71
2024/01/10 01:54:36;;;;;;;;;;;;;;;;;;5002219;28;19930;-70
2024/01/10 01:57:03;;;;;;;;;;;;;;;;;;4993717;28;19933;-70
2024/01/10 01:59:30;;;;;;;;;;;;;;;;;;4991271;28;19930;-70
2024/01/10 02:01:57;;;;;;;;;;;;;;;;;;4993162;28;20401;-70
2024/01/10 02:04:24;;;;;;;;;;;;;;;;;;4994754;28;19930;-70
2024/01/10 02:06:51;;;;;;;;;;;;;;;;;;4993728;28;19996;-70
2024/01/10 02:09:18;;;;;;;;;;;;;;;;;;4993094;28;19926;-70
2024/01/10 02:11:45;;;;;;;;;;;;;;;;;;4994054;28;19933;-70
2024/01/10 02:14:13;;;;;;;;;;;;;;;;;;4993154;28;19980;-70
2024/01/10 02:16:40;;;;;;;;;;;;;;;;;;4993008;28;19925;-70
2024/01/10 02:19:07;;;;;;;;;;;;;;;;;;4993027;28;20385;-70
2024/01/10 02:21:34;;;;;;;;;;;;;;;;;;4996043;28;19996;-71
2024/01/10 02:24:01;;;;;;;;;;;;;;;;;;5011218;28;19964;-70
2024/01/10 02:26:28;;;;;;;;;;;;;;;;;;5008441;28;19930;-70
2024/01/10 02:28:55;;;;;;;;;;;;;;;;;;5000067;28;19965;-70
2024/01/10 02:31:22;;;;;;;;;;;;;;;;;;4993284;28;19977;-70
2024/01/10 02:33:49;;;;;;;;;;;;;;;;;;4993094;28;19934;-70
2024/01/10 02:36:16;;;;;;;;;;;;;;;;;;4993980;28;19930;-70
2024/01/10 02:38:43;;;;;;;;;;;;;;;;;;4992964;28;19925;-70
2024/01/10 02:41:10;;;;;;;;;;;;;;;;;;4994414;28;19988;-69
2024/01/10 02:43:37;;;;;;;;;;;;;;;;;;4992957;28;20405;-69
2024/01/10 02:46:04;;;;;;;;;;;;;;;;;;4993075;28;19934;-70
2024/01/10 02:48:31;;;;;;;;;;;;;;;;;;4996793;28;19932;-69
2024/01/10 02:50:58;;;;;;;;;;;;;;;;;;5007136;28;19926;-70
2024/01/10 02:53:25;;;;;;;;;;;;;;;;;;4994452;28;19926;-69
2024/01/10 02:55:53;;;;;;;;;;;;;;;;;;4998767;28;19926;-69
2024/01/10 02:58:21;;;;;;;;;;;;;;;;;;4996285;28;19926;-69
2024/01/10 03:00:48;;;;;;;;;;;;;;;;;;5005708;28;20351;-69
2024/01/10 03:03:15;;;;;;;;;;;;;;;;;;4991727;28;20451;-69
2024/01/10 03:05:42;;;;;;;;;;;;;;;;;;4992062;28;20385;-69
2024/01/10 03:08:09;;;;;;;;;;;;;;;;;;4992441;28;20344;-70
2024/01/10 03:10:37;;;;;;;;;;;;;;;;;;5004329;28;19966;-70
2024/01/10 03:13:04;;;;;;;;;;;;;;;;;;5004020;28;19933;-71
2024/01/10 03:15:31;;;;;;;;;;;;;;;;;;4996889;28;20348;-70
2024/01/10 03:17:58;;;;;;;;;;;;;;;;;;4996296;28;19968;-70
2024/01/10 03:20:25;;;;;;;;;;;;;;;;;;4997185;28;19989;-71
2024/01/10 03:22:52;;;;;;;;;;;;;;;;;;4996575;28;19989;-70
2024/01/10 03:25:19;;;;;;;;;;;;;;;;;;4996206;28;19994;-70
2024/01/10 03:27:46;;;;;;;;;;;;;;;;;;4996504;28;19942;-70
2024/01/10 03:30:13;;;;;;;;;;;;;;;;;;4997349;28;20047;-70
2024/01/10 03:32:41;;;;;;;;;;;;;;;;;;5014175;28;19937;-71
2024/01/10 03:35:08;;;;;;;;;;;;;;;;;;5007514;28;19957;-70
2024/01/10 03:37:35;;;;;;;;;;;;;;;;;;4997187;28;19925;-71
2024/01/10 03:40:02;;;;;;;;;;;;;;;;;;4996450;28;19926;-71
2024/01/10 03:42:29;;;;;;;;;;;;;;;;;;4996343;28;19988;-70
2024/01/10 03:44:57;;;;;;;;;;;;;;;;;;4995876;28;19930;-71
2024/01/10 03:47:24;;;;;;;;;;;;;;;;;;5000008;28;19992;-70
2024/01/10 03:49:51;;;;;;;;;;;;;;;;;;5008177;28;20016;-71
2024/01/10 03:52:19;;;;;;;;;;;;;;;;;;4999519;28;19953;-70
2024/01/10 03:54:46;;;;;;;;;;;;;;;;;;4995663;28;20388;-71
2024/01/10 03:57:13;;;;;;;;;;;;;;;;;;4995583;28;19933;-70
2024/01/10 03:59:40;;;;;;;;;;;;;;;;;;4995652;28;20369;-70
2024/01/10 04:02:07;;;;;;;;;;;;;;;;;;4996601;28;20401;-70
2024/01/10 04:04:34;;;;;;;;;;;;;;;;;;4997266;28;20345;-70
2024/01/10 04:07:01;;;;;;;;;;;;;;;;;;5004183;28;19926;-70
2024/01/10 04:09:28;;;;;;;;;;;;;;;;;;4995345;28;19988;-70
2024/01/10 04:11:55;;;;;;;;;;;;;;;;;;4995478;28;20485;-70
2024/01/10 04:14:22;;;;;;;;;;;;;;;;;;4996105;28;20460;-69
2024/01/10 04:16:49;;;;;;;;;;;;;;;;;;5003604;28;19925;-71
2024/01/10 04:19:17;;;;;;;;;;;;;;;;;;5014221;28;19925;-70
2024/01/10 04:21:44;;;;;;;;;;;;;;;;;;5010010;28;19989;-70
2024/01/10 04:24:11;;;;;;;;;;;;;;;;;;4996167;28;20297;-70
2024/01/10 04:26:38;;;;;;;;;;;;;;;;;;5013060;28;19925;-71
2024/01/10 04:29:05;;;;;;;;;;;;;;;;;;5014701;28;19992;-70
2024/01/10 04:31:32;;;;;;;;;;;;;;;;;;5013849;28;19971;-70
2024/01/10 04:33:59;;;;;;;;;;;;;;;;;;5014753;28;20012;-71
2024/01/10 04:36:27;;;;;;;;;;;;;;;;;;4998811;28;20019;-70
2024/01/10 04:38:54;;;;;;;;;;;;;;;;;;5013274;28;20021;-70
2024/01/10 04:41:21;;;;;;;;;;;;;;;;;;5010731;28;19961;-70
2024/01/10 04:43:48;;;;;;;;;;;;;;;;;;4994272;28;19926;-71
2024/01/10 04:46:16;;;;;;;;;;;;;;;;;;4993777;28;20388;-70
2024/01/10 04:48:43;;;;;;;;;;;;;;;;;;4994514;28;20278;-70
2024/01/10 04:51:10;;;;;;;;;;;;;;;;;;4994480;28;20369;-72
2024/01/10 04:53:37;;;;;;;;;;;;;;;;;;4994939;28;20503;-72
2024/01/10 04:56:04;;;;;;;;;;;;;;;;;;4994377;28;19926;-72
2024/01/10 04:58:32;;;;;;;;;;;;;;;;;;4994235;28;19925;-72
2024/01/10 05:00:59;;;;;;;;;;;;;;;;;;4994453;28;20016;-72
2024/01/10 05:03:26;;;;;;;;;;;;;;;;;;4994233;28;19988;-70
2024/01/10 05:05:53;;;;;;;;;;;;;;;;;;4994410;28;19930;-70
2024/01/10 05:08:21;;;;;;;;;;;;;;;;;;4994478;28;19926;-72
2024/01/10 05:10:48;;;;;;;;;;;;;;;;;;4994552;28;19932;-71
2024/01/10 05:13:15;;;;;;;;;;;;;;;;;;4994501;28;19980;-72
2024/01/10 05:15:42;;;;;;;;;;;;;;;;;;4994341;28;19937;-71
2024/01/10 05:18:10;;;;;;;;;;;;;;;;;;4995026;28;19930;-71
2024/01/10 05:20:37;;;;;;;;;;;;;;;;;;4995505;28;20297;-70
2024/01/10 05:23:05;;;;;;;;;;;;;;;;;;4994334;28;19926;-69
2024/01/10 05:25:32;;;;;;;;;;;;;;;;;;4994002;28;19926;-72
2024/01/10 05:27:59;;;;;;;;;;;;;;;;;;4994438;28;19949;-70
2024/01/10 05:30:26;;;;;;;;;;;;;;;;;;4997827;28;19992;-70
2024/01/10 05:32:53;;;;;;;;;;;;;;;;;;5012328;28;19925;-70
2024/01/10 05:35:20;;;;;;;;;;;;;;;;;;5010008;28;19925;-71
2024/01/10 05:37:47;;;;;;;;;;;;;;;;;;5006963;28;19925;-70
2024/01/10 05:40:14;;;;;;;;;;;;;;;;;;4999959;28;19925;-70
2024/01/10 05:42:41;;;;;;;;;;;;;;;;;;4993590;28;19926;-70
2024/01/10 05:45:08;;;;;;;;;;;;;;;;;;4993852;28;19934;-71
2024/01/10 05:47:36;;;;;;;;;;;;;;;;;;5003669;28;20336;-70
2024/01/10 05:50:06;;;;;;;;;;;;;;;;;;5007859;28;19929;-69
2024/01/10 05:52:33;;;;;;;;;;;;;;;;;;5000983;28;19925;-70
2024/01/10 05:55:01;;;;;;;;;;;;;;;;;;4994696;28;19926;-70
2024/01/10 05:57:30;;;;;;;;;;;;;;;;;;4993339;28;20145;-71
2024/01/10 05:59:57;;;;;;;;;;;;;;;;;;4997034;28;20338;-70
2024/01/10 06:02:24;;;;;;;;;;;;;;;;;;4997409;28;20441;-71
2024/01/10 06:04:51;;;;;;;;;;;;;;;;;;5003552;28;19926;-70
2024/01/10 06:07:18;;;;;;;;;;;;;;;;;;4992060;28;19962;-70
2024/01/10 06:09:45;;;;;;;;;;;;;;;;;;4993026;28;19965;-70
2024/01/10 06:12:12;;;;;;;;;;;;;;;;;;5005464;28;19932;-70
2024/01/10 06:14:39;;;;;;;;;;;;;;;;;;4992804;28;19955;-70
2024/01/10 06:17:06;;;;;;;;;;;;;;;;;;5004428;28;19964;-70
2024/01/10 06:19:33;;;;;;;;;;;;;;;;;;5009950;28;20068;-70
2024/01/10 06:22:00;;;;;;;;;;;;;;;;;;4996920;28;19980;-70
2024/01/10 06:24:27;;;;;;;;;;;;;;;;;;4993020;28;19930;-71
2024/01/10 06:26:55;;;;;;;;;;;;;;;;;;4996179;28;19925;-70
2024/01/10 06:29:22;;;;;;;;;;;;;;;;;;5009897;28;19933;-70
2024/01/10 06:31:49;;;;;;;;;;;;;;;;;;5011725;28;19925;-70
2024/01/10 06:34:16;;;;;;;;;;;;;;;;;;5012489;28;19925;-71
2024/01/10 06:36:43;;;;;;;;;;;;;;;;;;5011271;28;19929;-70
2024/01/10 06:39:12;;;;;;;;;;;;;;;;;;4997528;28;20345;-71
2024/01/10 06:41:39;;;;;;;;;;;;;;;;;;4999356;28;19925;-71
2024/01/10 06:44:06;;;;;;;;;;;;;;;;;;5004189;28;19937;-70
2024/01/10 06:46:33;;;;;;;;;;;;;;;;;;5001844;28;19953;-70
2024/01/10 06:49:01;;;;;;;;;;;;;;;;;;4999906;28;20011;-69
2024/01/10 06:51:28;;;;;;;;;;;;;;;;;;4997904;28;19930;-70
2024/01/10 06:54:02;;;;;;;;;;;;;;;;;;5000760;28;19977;-71
2024/01/10 06:56:29;;;;;;;;;;;;;;;;;;5002523;28;20337;-70
2024/01/10 06:58:56;;;;;;;;;;;;;;;;;;5018440;28;20367;-70
2024/01/10 07:01:23;;;;;;;;;;;;;;;;;;4998480;28;20464;-70
2024/01/10 07:03:51;;;;;;;;;;;;;;;;;;4996342;28;20444;-69
2024/01/10 07:06:18;;;;;;;;;;;;;;;;;;5006349;28;19956;-69
2024/01/10 07:08:45;;;;;;;;;;;;;;;;;;4998715;28;19933;-68
2024/01/10 07:11:13;;;;;;;;;;;;;;;;;;5009517;28;20315;-68
2024/01/10 07:13:40;;;;;;;;;;;;;;;;;;5005441;28;19977;-69
2024/01/10 07:16:07;;;;;;;;;;;;;;;;;;5006223;28;19972;-68
2024/01/10 07:18:34;;;;;;;;;;;;;;;;;;4995073;28;20369;-68
2024/01/10 07:21:01;;;;;;;;;;;;;;;;;;5004577;28;20339;-68
2024/01/10 07:23:29;;;;;;;;;;;;;;;;;;4996705;28;19926;-66
2024/01/10 07:25:56;;;;;;;;;;;;;;;;;;5008761;28;19930;-68
2024/01/10 07:28:23;;;;;;;;;;;;;;;;;;5009494;28;19926;-68
2024/01/10 07:30:50;;;;;;;;;;;;;;;;;;4990120;28;19925;-69
2024/01/10 07:33:18;;;;;;;;;;;;;;;;;;4991051;28;19984;-69
2024/01/10 07:35:45;;;;;;;;;;;;;;;;;;4997244;28;19925;-68
2024/01/10 07:38:12;;;;;;;;;;;;;;;;;;5004353;28;19925;-68
2024/01/10 07:40:39;;;;;;;;;;;;;;;;;;4990585;28;19926;-68
2024/01/10 07:43:07;;;;;;;;;;;;;;;;;;4998986;28;19930;-68
2024/01/10 07:45:34;;;;;;;;;;;;;;;;;;4991377;28;20330;-68
2024/01/10 07:48:01;;;;;;;;;;;;;;;;;;5005081;28;20360;-68
2024/01/10 07:50:28;;;;;;;;;;;;;;;;;;4994827;28;19925;-69
2024/01/10 07:52:56;;;;;;;;;;;;;;;;;;5006643;28;19930;-69
2024/01/10 07:55:24;;;;;;;;;;;;;;;;;;4997964;28;19992;-70
2024/01/10 07:57:51;;;;;;;;;;;;;;;;;;5003666;28;19987;-69
2024/01/10 08:00:20;;;;;;;;;;;;;;;;;;5003387;28;19926;-70
2024/01/10 08:02:48;;;;;;;;;;;;;;;;;;5010181;28;19936;-69
2024/01/10 08:05:15;;;;;;;;;;;;;;;;;;5004593;28;20449;-69
2024/01/10 08:07:42;;;;;;;;;;;;;;;;;;5014782;28;19926;-68
2024/01/10 08:10:10;;;;;;;;;;;;;;;;;;5012833;28;19987;-68
2024/01/10 08:12:38;;;;;;;;;;;;;;;;;;5004816;28;19977;-68
2024/01/10 08:15:06;;;;;;;;;;;;;;;;;;4995893;28;19964;-68
2024/01/10 08:17:34;;;;;;;;;;;;;;;;;;4994766;28;19926;-69
2024/01/10 08:20:03;;;;;;;;;;;;;;;;;;4998108;28;20008;-67
2024/01/10 08:22:30;;;;;;;;;;;;;;;;;;4996400;28;19926;-68
2024/01/10 08:24:57;;;;;;;;;;;;;;;;;;4997561;28;20316;-68
2024/01/10 08:27:25;;;;;;;;;;;;;;;;;;4998491;28;19930;-69
2024/01/10 08:29:52;;;;;;;;;;;;;;;;;;5003312;28;19926;-67
2024/01/10 08:32:21;;;;;;;;;;;;;;;;;;5007056;28;19969;-68
2024/01/10 08:34:48;;;;;;;;;;;;;;;;;;5000587;28;19925;-68
2024/01/10 08:37:17;;;;;;;;;;;;;;;;;;4995544;28;20012;-69
2024/01/10 08:39:44;;;;;;;;;;;;;;;;;;4996420;28;20329;-68
2024/01/10 08:42:11;;;;;;;;;;;;;;;;;;4994858;28;19962;-68
2024/01/10 08:44:38;;;;;;;;;;;;;;;;;;4998089;28;19932;-68
2024/01/10 08:47:05;;;;;;;;;;;;;;;;;;5002197;28;19926;-69
2024/01/10 08:49:32;;;;;;;;;;;;;;;;;;5001788;28;20020;-68
2024/01/10 08:51:59;;;;;;;;;;;;;;;;;;4993855;28;20377;-68
2024/01/10 08:54:26;;;;;;;;;;;;;;;;;;4994601;28;19945;-68
2024/01/10 08:56:54;;;;;;;;;;;;;;;;;;4994978;28;19973;-68
2024/01/10 08:59:21;;;;;;;;;;;;;;;;;;4994234;28;19926;-68
2024/01/10 09:01:48;;;;;;;;;;;;;;;;;;4994940;28;19933;-68
2024/01/10 09:04:15;;;;;;;;;;;;;;;;;;4999253;28;19988;-69
2024/01/10 09:06:42;;;;;;;;;;;;;;;;;;5012173;28;19925;-71
2024/01/10 09:09:09;;;;;;;;;;;;;;;;;;4989863;28;19933;-71
2024/01/10 09:11:36;;;;;;;;;;;;;;;;;;4998293;28;19926;-71
2024/01/10 09:14:03;;;;;;;;;;;;;;;;;;5000191;28;19925;-69
2024/01/10 09:16:30;;;;;;;;;;;;;;;;;;5008153;28;19926;-68
2024/01/10 09:18:58;;;;;;;;;;;;;;;;;;5001902;28;19926;-69
2024/01/10 09:21:25;;;;;;;;;;;;;;;;;;5000296;28;20335;-69
2024/01/10 09:23:52;;;;;;;;;;;;;;;;;;5000841;28;19969;-69
2024/01/10 09:26:20;;;;;;;;;;;;;;;;;;4997405;28;19929;-68
2024/01/10 09:28:47;;;;;;;;;;;;;;;;;;5000487;28;19976;-68
2024/01/10 09:31:14;;;;;;;;;;;;;;;;;;5002759;28;19984;-68
2024/01/10 09:33:41;;;;;;;;;;;;;;;;;;5000018;28;19925;-68
2024/01/10 09:36:08;;;;;;;;;;;;;;;;;;4997048;28;20005;-68
2024/01/10 09:38:35;;;;;;;;;;;;;;;;;;4991332;28;19930;-68
2024/01/10 09:41:02;;;;;;;;;;;;;;;;;;4998065;28;19929;-68
2024/01/10 09:43:29;;;;;;;;;;;;;;;;;;5002972;28;19939;-66
2024/01/10 09:45:56;;;;;;;;;;;;;;;;;;4998450;28;19968;-66
2024/01/10 09:48:23;;;;;;;;;;;;;;;;;;5002171;28;19972;-66
2024/01/10 09:50:50;;;;;;;;;;;;;;;;;;5004854;28;19988;-67
2024/01/10 09:53:17;;;;;;;;;;;;;;;;;;4994548;28;19925;-69
2024/01/10 09:55:45;;;;;;;;;;;;;;;;;;4993663;28;19996;-68
2024/01/10 09:58:12;;;;;;;;;;;;;;;;;;5003432;28;20340;-68
2024/01/10 10:00:39;;;;;;;;;;;;;;;;;;4998598;28;19996;-69
2024/01/10 10:03:06;;;;;;;;;;;;;;;;;;4996620;28;20377;-66
2024/01/10 10:05:34;;;;;;;;;;;;;;;;;;4996835;28;19949;-66
2024/01/10 10:08:02;;;;;;;;;;;;;;;;;;4993621;28;19929;-68
2024/01/10 10:10:29;;;;;;;;;;;;;;;;;;4994430;28;19926;-67
2024/01/10 10:12:57;;;;;;;;;;;;;;;;;;4992393;28;19969;-68
2024/01/10 10:15:26;;;;;;;;;;;;;;;;;;5008417;28;20015;-68
2024/01/10 10:17:53;;;;;;;;;;;;;;;;;;5010609;28;19949;-68
2024/01/10 10:20:20;;;;;;;;;;;;;;;;;;4994316;28;19926;-67
2024/01/10 10:22:47;;;;;;;;;;;;;;;;;;4996906;28;20340;-68
2024/01/10 10:25:14;;;;;;;;;;;;;;;;;;4996291;28;20397;-67
2024/01/10 10:27:41;;;;;;;;;;;;;;;;;;4994845;28;19926;-67
2024/01/10 10:30:09;;;;;;;;;;;;;;;;;;5007181;28;19929;-68
2024/01/10 10:32:36;;;;;;;;;;;;;;;;;;4995106;28;20013;-69
2024/01/10 10:35:03;;;;;;;;;;;;;;;;;;5002072;28;19925;-68
2024/01/10 10:37:30;;;;;;;;;;;;;;;;;;4995201;28;19980;-68
2024/01/10 10:39:57;;;;;;;;;;;;;;;;;;4998300;28;19966;-68
2024/01/10 10:42:24;;;;;;;;;;;;;;;;;;4995543;28;19925;-66
2024/01/10 10:44:51;;;;;;;;;;;;;;;;;;5001645;28;19925;-67
2024/01/10 10:47:18;;;;;;;;;;;;;;;;;;4997736;28;19926;-67
2024/01/10 10:49:45;;;;;;;;;;;;;;;;;;4998086;28;19925;-68
2024/01/10 10:52:12;;;;;;;;;;;;;;;;;;4997794;28;19990;-67
2024/01/10 10:54:39;;;;;;;;;;;;;;;;;;4997867;28;19929;-67
2024/01/10 10:57:06;;;;;;;;;;;;;;;;;;4990121;28;19926;-67
2024/01/10 10:59:33;;;;;;;;;;;;;;;;;;4990691;28;19926;-66
2024/01/10 11:02:01;;;;;;;;;;;;;;;;;;5003174;28;19940;-67
2024/01/10 11:04:28;;;;;;;;;;;;;;;;;;4998206;28;19925;-68
2024/01/10 11:06:55;;;;;;;;;;;;;;;;;;4987186;28;19945;-67
2024/01/10 11:09:23;;;;;;;;;;;;;;;;;;4987169;28;19933;-68
2024/01/10 11:11:50;;;;;;;;;;;;;;;;;;5006482;28;20459;-66
2024/01/10 11:14:17;;;;;;;;;;;;;;;;;;4991509;28;19965;-67
2024/01/10 11:16:45;;;;;;;;;;;;;;;;;;4992655;28;20386;-67
2024/01/10 11:19:12;;;;;;;;;;;;;;;;;;4992913;28;19969;-65
2024/01/10 11:21:39;;;;;;;;;;;;;;;;;;4991874;28;20042;-69
2024/01/10 11:24:09;;;;;;;;;;;;;;;;;;4996899;28;19925;-69
2024/01/10 11:26:36;;;;;;;;;;;;;;;;;;4993504;28;20004;-69
2024/01/10 11:29:03;;;;;;;;;;;;;;;;;;4998113;28;19927;-69
2024/01/10 11:31:30;;;;;;;;;;;;;;;;;;5007179;28;20007;-68
2024/01/10 11:33:57;;;;;;;;;;;;;;;;;;5001115;28;19926;-67
2024/01/10 11:36:25;;;;;;;;;;;;;;;;;;5008233;28;19980;-67
2024/01/10 11:38:53;;;;;;;;;;;;;;;;;;5003819;28;19925;-67
2024/01/10 11:41:20;;;;;;;;;;;;;;;;;;5003561;28;19933;-67
2024/01/10 11:43:47;;;;;;;;;;;;;;;;;;4996747;28;19926;-68
2024/01/10 11:46:15;;;;;;;;;;;;;;;;;;5002398;28;20000;-68
2024/01/10 11:48:42;;;;;;;;;;;;;;;;;;5007807;28;19925;-68
2024/01/10 11:51:09;;;;;;;;;;;;;;;;;;4998093;28;19972;-67
2024/01/10 11:53:36;;;;;;;;;;;;;;;;;;4998040;28;20282;-67
2024/01/10 11:56:03;;;;;;;;;;;;;;;;;;5009261;28;20385;-67
2024/01/10 11:58:30;;;;;;;;;;;;;;;;;;5001066;28;19992;-68
2024/01/10 12:00:57;;;;;;;;;;;;;;;;;;5007718;28;19934;-67
2024/01/10 12:03:24;;;;;;;;;;;;;;;;;;5009904;28;20385;-68
2024/01/10 12:05:51;;;;;;;;;;;;;;;;;;5004166;28;19925;-67
2024/01/10 12:08:19;;;;;;;;;;;;;;;;;;4995605;28;19930;-65
2024/01/10 12:10:46;;;;;;;;;;;;;;;;;;4993312;28;19929;-67
2024/01/10 12:13:13;;;;;;;;;;;;;;;;;;4994896;28;20389;-67
2024/01/10 12:15:40;;;;;;;;;;;;;;;;;;4993915;28;20525;-66
2024/01/10 12:18:08;;;;;;;;;;;;;;;;;;5005209;28;19926;-67
2024/01/10 12:20:35;;;;;;;;;;;;;;;;;;5003330;28;19925;-68
2024/01/10 12:23:02;;;;;;;;;;;;;;;;;;5005081;28;19973;-67
2024/01/10 12:25:30;;;;;;;;;;;;;;;;;;4996384;28;19932;-67
2024/01/10 12:27:57;;;;;;;;;;;;;;;;;;5003774;28;20418;-67
2024/01/10 12:30:24;;;;;;;;;;;;;;;;;;4998779;28;20366;-68
2024/01/10 12:32:51;;;;;;;;;;;;;;;;;;4995171;28;19926;-67
2024/01/10 12:35:18;;;;;;;;;;;;;;;;;;5008398;28;19952;-66
2024/01/10 12:37:45;;;;;;;;;;;;;;;;;;5003223;28;19971;-67
2024/01/10 12:40:13;;;;;;;;;;;;;;;;;;4998831;28;19925;-66
2024/01/10 12:42:40;;;;;;;;;;;;;;;;;;4997350;28;20018;-66
2024/01/10 12:45:07;;;;;;;;;;;;;;;;;;5001118;28;19926;-68
2024/01/10 12:47:34;;;;;;;;;;;;;;;;;;5000081;28;19930;-69
2024/01/10 12:50:02;;;;;;;;;;;;;;;;;;4996175;28;19930;-68
2024/01/10 12:52:29;;;;;;;;;;;;;;;;;;5001435;28;20404;-69
2024/01/10 12:54:56;;;;;;;;;;;;;;;;;;4999308;28;19979;-68
2024/01/10 12:57:24;;;;;;;;;;;;;;;;;;5005222;28;19926;-67
2024/01/10 12:59:51;;;;;;;;;;;;;;;;;;4995789;28;19926;-68
2024/01/10 13:02:18;;;;;;;;;;;;;;;;;;4997719;28;19926;-67
2024/01/10 13:04:45;;;;;;;;;;;;;;;;;;4996646;28;20016;-67
2024/01/10 13:07:12;;;;;;;;;;;;;;;;;;4998939;28;20071;-66
2024/01/10 13:09:39;;;;;;;;;;;;;;;;;;4994186;28;20373;-64
2024/01/10 13:12:07;;;;;;;;;;;;;;;;;;4999901;28;19934;-63
2024/01/10 13:14:34;;;;;;;;;;;;;;;;;;4996028;28;20024;-64
2024/01/10 13:17:04;;;;;;;;;;;;;;;;;;4995932;28;20368;-67
2024/01/10 13:19:31;;;;;;;;;;;;;;;;;;4998327;28;19929;-64
2024/01/10 13:21:58;;;;;;;;;;;;;;;;;;5002841;28;19926;-64
2024/01/10 13:24:25;;;;;;;;;;;;;;;;;;4992992;28;19929;-65
2024/01/10 13:26:52;;;;;;;;;;;;;;;;;;5000871;28;19926;-67
2024/01/10 13:29:19;;;;;;;;;;;;;;;;;;4996938;28;19929;-67
2024/01/10 13:31:47;;;;;;;;;;;;;;;;;;4995820;28;20043;-67
2024/01/10 13:34:14;;;;;;;;;;;;;;;;;;4992997;28;19941;-67
2024/01/10 13:36:41;;;;;;;;;;;;;;;;;;4998339;28;19941;-67
2024/01/10 13:39:15;;;;;;;;;;;;;;;;;;4994683;28;19926;-66
2024/01/10 13:41:42;;;;;;;;;;;;;;;;;;4997721;28;19926;-67
2024/01/10 13:44:09;;;;;;;;;;;;;;;;;;5002964;28;19929;-66
2024/01/10 13:46:36;;;;;;;;;;;;;;;;;;4998343;28;19937;-66
2024/01/10 13:49:03;;;;;;;;;;;;;;;;;;4997141;28;19948;-66
2024/01/10 13:51:32;;;;;;;;;;;;;;;;;;4998028;28;20412;-66
2024/01/10 13:53:59;;;;;;;;;;;;;;;;;;4996949;28;20002;-66
2024/01/10 13:56:28;;;;;;;;;;;;;;;;;;5000672;28;19934;-66
2024/01/10 13:58:55;;;;;;;;;;;;;;;;;;4996367;28;19929;-66
2024/01/10 14:01:22;;;;;;;;;;;;;;;;;;4992885;28;19932;-66
2024/01/10 14:03:49;;;;;;;;;;;;;;;;;;4996920;28;20343;-66
2024/01/10 14:06:16;;;;;;;;;;;;;;;;;;5000845;28;19996;-66
2024/01/10 14:08:45;;;;;;;;;;;;;;;;;;4995333;28;19934;-66
2024/01/10 14:11:12;;;;;;;;;;;;;;;;;;4998247;28;19945;-65
2024/01/10 14:13:39;;;;;;;;;;;;;;;;;;4999878;28;19940;-65
2024/01/10 14:16:06;;;;;;;;;;;;;;;;;;4990816;28;20419;-66
2024/01/10 14:18:34;;;;;;;;;;;;;;;;;;4994919;28;20313;-65
2024/01/10 14:21:01;;;;;;;;;;;;;;;;;;5004329;28;19988;-65
2024/01/10 14:23:28;;;;;;;;;;;;;;;;;;5002636;28;20402;-66
2024/01/10 14:25:55;;;;;;;;;;;;;;;;;;5001287;28;20335;-65
2024/01/10 14:28:22;;;;;;;;;;;;;;;;;;4992559;28;19973;-65
2024/01/10 14:30:49;;;;;;;;;;;;;;;;;;5006578;28;19952;-66
2024/01/10 14:33:16;;;;;;;;;;;;;;;;;;4993819;28;19973;-66
2024/01/10 14:35:44;;;;;;;;;;;;;;;;;;4991307;28;19925;-66
2024/01/10 14:38:11;;;;;;;;;;;;;;;;;;4990950;28;20367;-65
2024/01/10 14:40:38;;;;;;;;;;;;;;;;;;4989468;28;20393;-66
2024/01/10 14:43:05;;;;;;;;;;;;;;;;;;4993732;28;20417;-65
2024/01/10 14:45:32;;;;;;;;;;;;;;;;;;5001318;28;19925;-66
2024/01/10 14:47:59;;;;;;;;;;;;;;;;;;4993846;28;19926;-65
2024/01/10 14:50:26;;;;;;;;;;;;;;;;;;4989682;28;19933;-65
2024/01/10 14:52:54;;;;;;;;;;;;;;;;;;4996732;28;19925;-65
2024/01/10 14:55:21;;;;;;;;;;;;;;;;;;4998692;28;19955;-65
2024/01/10 14:57:48;;;;;;;;;;;;;;;;;;5000119;28;19980;-66
2024/01/10 15:00:15;;;;;;;;;;;;;;;;;;4996873;28;19981;-65
2024/01/10 15:02:42;;;;;;;;;;;;;;;;;;4994059;28;19965;-66
2024/01/10 15:05:09;;;;;;;;;;;;;;;;;;4999270;28;19929;-66
2024/01/10 15:07:36;;;;;;;;;;;;;;;;;;5001993;28;19933;-66
2024/01/10 15:10:03;;;;;;;;;;;;;;;;;;5012253;22;19926;-65
2024/01/10 15:12:31;;;;;;;;;;;;;;;;;;5076297;28;20026;-66
2024/01/10 15:15:00;;;;;;;;;;;;;;;;;;5086637;28;19925;-66
2024/01/10 15:17:27;;;;;;;;;;;;;;;;;;5086658;28;19923;-66
2024/01/10 15:19:54;;;;;;;;;;;;;;;;;;5092295;28;19924;-66
2024/01/10 15:22:21;;;;;;;;;;;;;;;;;;5091297;28;20000;-66
2024/01/10 15:24:48;;;;;;;;;;;;;;;;;;5093395;28;20016;-64
2024/01/10 15:27:15;;;;;;;;;;;;;;;;;;5084457;28;20318;-66
2024/01/10 15:29:42;;;;;;;;;;;;;;;;;;5087274;28;20456;-66
2024/01/10 15:32:10;;;;;;;;;;;;;;;;;;5092504;28;19923;-66
2024/01/10 15:34:38;;;;;;;;;;;;;;;;;;5088856;28;19928;-66
2024/01/10 15:37:05;;;;;;;;;;;;;;;;;;5093273;28;19924;-66
2024/01/10 15:39:32;;;;;;;;;;;;;;;;;;5093837;28;19924;-66
2024/01/10 15:41:59;;;;;;;;;;;;;;;;;;5096968;28;20264;-66
2024/01/10 15:44:26;;;;;;;;;;;;;;;;;;5091828;28;20382;-65
2024/01/10 15:46:57;;;;;;;;;;;;;;;;;;5090543;28;19935;-66
2024/01/10 15:49:24;;;;;;;;;;;;;;;;;;5088236;28;19938;-65
2024/01/10 15:51:51;;;;;;;;;;;;;;;;;;5089207;28;19931;-65
2024/01/10 15:54:18;;;;;;;;;;;;;;;;;;5086614;28;19931;-66
2024/01/10 15:56:45;;;;;;;;;;;;;;;;;;5088867;28;20442;-66
2024/01/10 15:59:13;;;;;;;;;;;;;;;;;;5090880;28;19924;-66
2024/01/10 16:01:40;;;;;;;;;;;;;;;;;;5090028;28;19924;-65
2024/01/10 16:04:07;;;;;;;;;;;;;;;;;;5088001;28;19931;-66
2024/01/10 16:06:34;;;;;;;;;;;;;;;;;;5085685;28;19924;-66
2024/01/10 16:09:03;;;;;;;;;;;;;;;;;;5087375;28;19928;-65
2024/01/10 16:11:30;;;;;;;;;;;;;;;;;;5085696;28;20350;-66
2024/01/10 16:13:57;;;;;;;;;;;;;;;;;;5089597;28;19924;-66
2024/01/10 16:16:24;;;;;;;;;;;;;;;;;;5088259;28;19924;-65
2024/01/10 16:18:51;;;;;;;;;;;;;;;;;;5082053;28;20030;-66
2024/01/10 16:21:18;;;;;;;;;;;;;;;;;;5084894;28;20036;-65
2024/01/10 16:23:45;;;;;;;;;;;;;;;;;;5080453;28;19971;-66
2024/01/10 16:26:13;;;;;;;;;;;;;;;;;;5083145;28;19932;-66
2024/01/10 16:28:40;;;;;;;;;;;;;;;;;;5093174;28;19932;-65
2024/01/10 16:31:07;;;;;;;;;;;;;;;;;;5085221;28;19924;-65
2024/01/10 16:33:34;;;;;;;;;;;;;;;;;;5084095;28;20356;-66
2024/01/10 16:36:01;;;;;;;;;;;;;;;;;;5087827;28;19928;-66
2024/01/10 16:38:28;;;;;;;;;;;;;;;;;;5089288;28;20399;-66
2024/01/10 16:40:55;;;;;;;;;;;;;;;;;;5088437;28;20425;-66
2024/01/10 16:43:23;;;;;;;;;;;;;;;;;;5087578;28;20436;-65
2024/01/10 16:45:51;;;;;;;;;;;;;;;;;;5083487;28;19925;-66